createdAt,value
2022-12-31T00:03:46.746Z,8.10
2022-12-31T00:08:54.104Z,8.20
2022-12-31T00:13:59.967Z,8.10
2022-12-31T00:19:06.068Z,8.00
2022-12-31T00:24:12.924Z,8.30
2022-12-31T00:29:17.310Z,8.40
2022-12-31T00:34:22.065Z,8.50
2022-12-31T00:39:25.439Z,8.50
2022-12-31T00:44:30.010Z,8.50
2022-12-31T00:49:34.913Z,8.40
2022-12-31T00:54:40.373Z,8.40
2022-12-31T00:59:44.752Z,8.40
2022-12-31T01:04:49.035Z,8.50
2022-12-31T01:09:54.074Z,8.60
2022-12-31T01:14:59.177Z,8.80
2022-12-31T01:20:03.493Z,8.80
2022-12-31T01:25:07.908Z,8.80
2022-12-31T01:30:12.239Z,8.70
2022-12-31T01:35:16.843Z,8.60
2022-12-31T01:40:20.885Z,8.50
2022-12-31T01:45:25.272Z,8.50
2022-12-31T01:50:33.141Z,8.50
2022-12-31T01:55:46.469Z,8.60
2022-12-31T02:00:53.313Z,8.50
2022-12-31T02:06:06.535Z,8.50
2022-12-31T02:11:34.722Z,8.40
2022-12-31T02:16:53.603Z,8.40
2022-12-31T02:22:10.425Z,8.30
2022-12-31T02:27:29.940Z,8.20
2022-12-31T02:33:09.645Z,8.10
2022-12-31T02:38:24.956Z,8.00
2022-12-31T02:43:29.588Z,8.00
2022-12-31T02:48:45.561Z,7.90
2022-12-31T02:54:09.547Z,7.80
2022-12-31T02:59:50.711Z,7.80
2022-12-31T03:04:57.494Z,7.80
2022-12-31T03:10:02.245Z,7.70
2022-12-31T03:15:20.635Z,7.70
2022-12-31T03:20:54.270Z,7.60
2022-12-31T03:25:59.135Z,7.60
2022-12-31T03:31:04.995Z,7.60
2022-12-31T03:36:15.079Z,7.50
2022-12-31T03:41:19.073Z,7.50
2022-12-31T03:46:23.591Z,7.50
2022-12-31T03:51:28.121Z,7.40
2022-12-31T03:56:32.349Z,7.40
2022-12-31T04:01:37.353Z,7.40
2022-12-31T04:06:42.755Z,7.40
2022-12-31T04:11:47.250Z,7.40
2022-12-31T04:16:51.213Z,7.40
2022-12-31T04:21:55.916Z,7.40
2022-12-31T04:27:07.099Z,7.30
2022-12-31T04:32:12.270Z,7.30
2022-12-31T04:37:16.432Z,7.30
2022-12-31T04:42:20.535Z,7.30
2022-12-31T04:47:24.759Z,7.30
2022-12-31T04:52:29.122Z,7.40
2022-12-31T04:57:34.366Z,7.40
2022-12-31T05:02:39.831Z,7.40
2022-12-31T05:07:43.642Z,7.40
2022-12-31T05:12:47.994Z,7.50
2022-12-31T05:17:52.961Z,7.60
2022-12-31T05:22:57.716Z,7.60
2022-12-31T05:28:02.330Z,7.60
2022-12-31T05:33:06.403Z,7.60
2022-12-31T05:38:11.069Z,7.60
2022-12-31T05:43:15.689Z,7.60
2022-12-31T05:48:19.821Z,7.60
2022-12-31T05:53:24.090Z,7.60
2022-12-31T05:58:28.042Z,7.70
2022-12-31T06:03:32.191Z,7.80
2022-12-31T06:08:36.933Z,7.70
2022-12-31T06:13:41.610Z,7.80
2022-12-31T06:18:50.654Z,7.70
2022-12-31T06:23:55.175Z,7.70
2022-12-31T06:28:59.932Z,7.70
2022-12-31T06:34:05.517Z,7.80
2022-12-31T06:39:10.291Z,7.90
2022-12-31T06:44:15.335Z,7.80
2022-12-31T06:49:19.583Z,7.90
2022-12-31T06:54:24.013Z,8.00
2022-12-31T06:59:30.167Z,8.10
2022-12-31T07:05:01.543Z,8.10
2022-12-31T07:10:29.502Z,8.20
2022-12-31T07:15:37.140Z,8.30
2022-12-31T07:20:42.281Z,8.30
2022-12-31T07:26:07.188Z,8.20
2022-12-31T07:31:31.217Z,8.10
2022-12-31T07:36:43.743Z,8.20
2022-12-31T07:42:01.686Z,8.30
2022-12-31T07:47:14.036Z,8.40
2022-12-31T07:52:18.235Z,8.60
2022-12-31T07:57:27.188Z,8.70
2022-12-31T08:03:09.305Z,8.80
2022-12-31T08:08:25.851Z,8.90
2022-12-31T08:13:30.012Z,8.80
2022-12-31T08:18:34.422Z,8.90
2022-12-31T08:24:07.367Z,8.90
2022-12-31T08:29:39.329Z,9.00
2022-12-31T08:34:45.460Z,9.10
2022-12-31T08:40:14.159Z,9.20
2022-12-31T08:45:48.836Z,9.30
2022-12-31T08:50:53.718Z,9.40
2022-12-31T08:56:13.958Z,9.60
2022-12-31T09:01:25.323Z,9.60
2022-12-31T09:06:34.684Z,9.60
2022-12-31T09:11:45.104Z,9.80
2022-12-31T09:17:27.142Z,9.90
2022-12-31T09:22:32.561Z,10.00
2022-12-31T09:27:54.174Z,10.00
2022-12-31T09:33:19.723Z,10.20
2022-12-31T09:38:52.641Z,10.30
2022-12-31T09:44:15.526Z,10.30
2022-12-31T09:50:08.687Z,10.30
2022-12-31T09:55:28.359Z,10.30
2022-12-31T10:00:41.244Z,10.50
2022-12-31T10:06:23.081Z,10.50
2022-12-31T10:11:41.028Z,10.40
2022-12-31T10:17:07.648Z,10.60
2022-12-31T10:22:33.924Z,10.80
2022-12-31T10:27:49.983Z,10.90
2022-12-31T10:32:57.191Z,11.20
2022-12-31T10:38:34.788Z,11.30
2022-12-31T10:43:50.816Z,11.40
2022-12-31T10:49:07.693Z,11.50
2022-12-31T10:54:24.529Z,11.60
2022-12-31T10:59:46.528Z,11.60
2022-12-31T11:05:09.248Z,11.60
2022-12-31T11:10:35.818Z,11.60
2022-12-31T11:15:55.491Z,11.60
2022-12-31T11:21:09.843Z,11.70
2022-12-31T11:26:28.906Z,11.90
2022-12-31T11:31:50.367Z,11.90
2022-12-31T11:37:25.084Z,11.90
2022-12-31T11:43:01.423Z,12.00
2022-12-31T11:48:35.576Z,12.00
2022-12-31T11:53:42.800Z,12.00
2022-12-31T11:58:54.687Z,11.90
2022-12-31T12:03:58.146Z,11.90
2022-12-31T12:09:07.910Z,11.90
2022-12-31T12:14:45.538Z,11.80
2022-12-31T12:19:57.398Z,11.90
2022-12-31T12:25:16.717Z,11.90
2022-12-31T12:30:27.528Z,12.00
2022-12-31T12:35:36.400Z,12.10
2022-12-31T12:40:41.985Z,12.00
2022-12-31T12:45:52.051Z,12.00
2022-12-31T12:50:59.019Z,11.90
2022-12-31T12:56:26.303Z,11.90
2022-12-31T13:01:52.880Z,11.90
2022-12-31T13:07:16.570Z,12.00
2022-12-31T13:13:05.225Z,11.90
2022-12-31T13:18:30.142Z,11.90
2022-12-31T13:23:50.710Z,12.00
2022-12-31T13:28:56.257Z,12.00
2022-12-31T13:34:21.769Z,11.80
2022-12-31T13:39:29.653Z,11.70
2022-12-31T13:45:14.711Z,11.70
2022-12-31T13:50:32.456Z,11.60
2022-12-31T13:56:10.908Z,11.80
2022-12-31T14:01:35.389Z,11.90
2022-12-31T14:06:46.431Z,11.90
2022-12-31T14:12:08.403Z,11.90
2022-12-31T14:17:23.047Z,11.90
2022-12-31T14:22:35.201Z,12.00
2022-12-31T14:27:43.584Z,12.00
2022-12-31T14:32:55.812Z,12.00
2022-12-31T14:38:24.506Z,12.00
2022-12-31T14:43:56.144Z,11.90
2022-12-31T14:49:33.561Z,11.70
2022-12-31T14:54:38.977Z,11.50
2022-12-31T14:59:59.723Z,11.40
2022-12-31T15:05:12.413Z,11.30
2022-12-31T15:10:35.339Z,11.30
2022-12-31T15:16:06.953Z,11.30
2022-12-31T15:21:32.581Z,11.30
2022-12-31T15:26:37.375Z,11.30
2022-12-31T15:31:47.576Z,11.30
2022-12-31T15:36:58.627Z,11.30
2022-12-31T15:42:36.754Z,11.30
2022-12-31T15:47:42.516Z,11.10
2022-12-31T15:52:58.215Z,11.10
2022-12-31T15:58:11.711Z,11.00
2022-12-31T16:03:23.583Z,11.00
2022-12-31T16:08:31.870Z,10.90
2022-12-31T16:13:43.916Z,10.80
2022-12-31T16:18:48.303Z,10.80
2022-12-31T16:23:55.497Z,10.80
2022-12-31T16:29:04.845Z,10.80
2022-12-31T16:34:15.767Z,10.80
2022-12-31T16:39:24.901Z,10.80
2022-12-31T16:44:31.656Z,10.80
2022-12-31T16:49:39.198Z,10.80
2022-12-31T16:54:48.394Z,10.90
2022-12-31T17:00:00.533Z,10.80
2022-12-31T17:05:05.487Z,10.80
2022-12-31T17:10:15.374Z,10.60
2022-12-31T17:15:23.492Z,10.60
2022-12-31T17:20:30.039Z,10.60
2022-12-31T17:25:38.709Z,10.60
2022-12-31T17:30:43.556Z,10.60
2022-12-31T17:35:48.837Z,10.70
2022-12-31T17:40:54.010Z,10.70
2022-12-31T17:45:57.911Z,10.70
2022-12-31T17:51:02.206Z,10.60
2022-12-31T17:56:08.468Z,10.50
2022-12-31T18:01:16.550Z,10.30
2022-12-31T18:06:21.519Z,10.30
2022-12-31T22:11:26.788Z,10.30
2022-12-31T22:16:31.264Z,10.20
2022-12-31T22:21:35.878Z,10.30
2022-12-31T22:26:46.557Z,10.30
2022-12-31T22:31:54.505Z,10.30
2022-12-31T22:37:14.361Z,10.30
2022-12-31T22:42:28.783Z,10.30
2022-12-31T22:47:32.761Z,10.30
2022-12-31T22:52:36.990Z,10.30
2022-12-31T22:57:40.625Z,10.30
2022-12-31T23:02:45.249Z,10.30
2022-12-31T23:07:53.730Z,10.30
2022-12-31T23:12:59.843Z,10.30
2022-12-31T23:18:22.447Z,10.30
2022-12-31T23:23:27.672Z,10.30
2022-12-31T23:28:32.252Z,10.20
2022-12-31T23:33:37.441Z,10.20
2022-12-31T23:38:42.275Z,10.20
2022-12-31T23:43:46.772Z,10.10
2022-12-31T23:48:51.207Z,10.10
2022-12-31T23:53:55.544Z,10.10
2022-12-31T23:59:00.224Z,10.00
